Time,TemperatureF,DewpointF,PressureIn,WindDirection,WindDirectionDegrees,WindSpeedMPH,WindSpeedGustMPH,Humidity,HourlyPrecipIn,Conditions,Clouds,dailyrainin,SoftwareType,DateUTC
2013-07-02 00:04:00,63.8,49.2,30.10,East,90,0.0,7.0,59,0.00,-RA,OVC,0.00,WeatherDisplay:10.37,2013-07-02 04:04:00,
2013-07-02 00:09:00,63.8,49.2,30.10,ENE,61,0.0,1.0,59,0.00,-RA,OVC,0.00,WeatherDisplay:10.37,2013-07-02 04:09:00,
2013-07-02 00:14:00,63.6,49.0,30.10,ENE,73,0.0,0.0,59,0.00,-RA,OVC,0.00,WeatherDisplay:10.37,2013-07-02 04:14:00,
2013-07-02 00:19:00,63.5,48.9,30.11,ENE,76,0.0,5.0,59,0.00,-RA,OVC,0.00,WeatherDisplay:10.37,2013-07-02 04:19:00,
2013-07-02 00:24:00,63.4,49.3,30.11,ENE,72,0.0,2.0,60,0.00,-RA,OVC,0.00,WeatherDisplay:10.37,2013-07-02 04:24:00,
2013-07-02 00:29:00,63.3,49.2,30.11,ENE,57,0.0,0.0,60,0.00,-RA,OVC,0.00,WeatherDisplay:10.37,2013-07-02 04:29:00,
2013-07-02 00:34:00,63.0,48.9,30.11,ENE,67,1.0,4.0,60,0.00,-RA,OVC,0.00,WeatherDisplay:10.37,2013-07-02 04:34:00,
2013-07-02 00:39:00,62.8,50.8,30.11,East,83,0.0,1.0,65,0.00,-RA,OVC,0.00,WeatherDisplay:10.37,2013-07-02 04:39:00,
2013-07-02 00:44:00,62.3,49.5,30.11,East,88,0.0,1.0,63,0.00,-RA,OVC,0.00,WeatherDisplay:10.37,2013-07-02 04:44:00,
2013-07-02 00:49:00,61.8,51.1,30.10,NNE,22,0.0,0.0,68,0.00,-RA,OVC,0.00,WeatherDisplay:10.37,2013-07-02 04:49:00,
2013-07-02 00:54:00,61.1,50.9,30.10,NE,40,0.0,0.0,69,0.00,-RA,OVC,0.00,WeatherDisplay:10.37,2013-07-02 04:54:00,
2013-07-02 00:59:00,61.0,49.9,30.10,ENE,72,0.0,0.0,67,0.00,-RA,OVC,0.00,WeatherDisplay:10.37,2013-07-02 04:59:00,
2013-07-02 01:04:00,61.0,50.4,30.11,NE,47,0.0,0.0,68,0.00,-RA,OVC,0.00,WeatherDisplay:10.37,2013-07-02 05:04:00,
2013-07-02 01:09:00,61.1,50.5,30.11,NNE,22,0.0,1.0,68,0.00,-RA,OVC,0.00,WeatherDisplay:10.37,2013-07-02 05:09:00,
2013-07-02 01:14:00,60.9,49.9,30.11,NNE,13,0.0,0.0,67,0.00,-RA,OVC,0.00,WeatherDisplay:10.37,2013-07-02 05:14:00,
2013-07-02 01:19:00,60.7,50.5,30.11,NNE,13,0.0,0.0,69,0.00,-RA,OVC,0.00,WeatherDisplay:10.37,2013-07-02 05:19:00,
2013-07-02 01:24:00,60.2,50.8,30.11,NNE,13,0.0,0.0,71,0.00,-RA,OVC,0.00,WeatherDisplay:10.37,2013-07-02 05:24:00,
2013-07-02 01:29:00,60.2,50.4,30.11,NNE,13,0.0,0.0,70,0.00,-RA,OVC,0.00,WeatherDisplay:10.37,2013-07-02 05:29:00,
2013-07-02 01:34:00,60.2,50.8,30.11,NNE,13,0.0,0.0,71,0.00,-RA,OVC,0.00,WeatherDisplay:10.37,2013-07-02 05:34:00,
2013-07-02 01:39:00,60.3,50.1,30.10,NNE,13,0.0,0.0,69,0.00,-RA,OVC,0.00,WeatherDisplay:10.37,2013-07-02 05:39:00,
2013-07-02 01:44:00,60.3,49.7,30.10,NNE,13,0.0,0.0,68,0.00,-RA,OVC,0.00,WeatherDisplay:10.37,2013-07-02 05:44:00,
2013-07-02 01:49:00,60.5,49.1,30.10,NNE,13,0.0,0.0,66,0.00,-RA,OVC,0.00,WeatherDisplay:10.37,2013-07-02 05:49:00,
2013-07-02 01:54:00,60.8,48.1,30.11,NNE,21,0.0,0.0,63,0.00,-RA,OVC,0.00,WeatherDisplay:10.37,2013-07-02 05:54:00,
2013-07-02 01:59:00,60.8,49.0,30.10,NE,36,0.0,0.0,65,0.00,-RA,OVC,0.00,WeatherDisplay:10.37,2013-07-02 05:59:00,
2013-07-02 02:04:00,60.4,49.8,30.10,NE,41,0.0,1.0,68,0.00,-RA,OVC,0.00,WeatherDisplay:10.37,2013-07-02 06:04:00,
2013-07-02 02:09:00,59.5,49.7,30.10,NE,35,0.0,1.0,70,0.00,-RA,OVC,0.00,WeatherDisplay:10.37,2013-07-02 06:09:00,
2013-07-02 02:14:00,58.8,50.1,30.10,NNE,13,0.0,1.0,73,0.00,-RA,OVC,0.00,WeatherDisplay:10.37,2013-07-02 06:14:00,
2013-07-02 02:19:00,58.2,50.3,30.10,North,349,0.0,1.0,75,0.00,-RA,OVC,0.00,WeatherDisplay:10.37,2013-07-02 06:19:00,
2013-07-02 02:24:00,58.1,49.9,30.11,North,2,0.0,3.0,74,0.00,-RA,OVC,0.00,WeatherDisplay:10.37,2013-07-02 06:24:00,
2013-07-02 02:29:00,58.0,50.5,30.11,NE,35,0.0,1.0,76,0.00,-RA,OVC,0.00,WeatherDisplay:10.37,2013-07-02 06:29:00,
2013-07-02 02:34:00,58.0,50.1,30.10,NE,35,0.0,1.0,75,0.00,-RA,OVC,0.00,WeatherDisplay:10.37,2013-07-02 06:34:00,
2013-07-02 02:44:00,58.7,49.3,30.10,ESE,103,0.0,2.0,71,0.00,-RA,OVC,0.00,WeatherDisplay:10.37,2013-07-02 06:44:00,
2013-07-02 02:49:00,59.0,49.2,30.10,NE,39,0.0,1.0,70,0.00,-RA,OVC,0.00,WeatherDisplay:10.37,2013-07-02 06:49:00,
2013-07-02 02:54:00,59.4,48.0,30.10,NE,47,0.0,1.0,66,0.00,OVC,OVC,0.00,WeatherDisplay:10.37,2013-07-02 06:54:00,
2013-07-02 02:59:00,59.6,48.6,30.10,NE,42,0.0,1.0,67,0.00,OVC,OVC,0.00,WeatherDisplay:10.37,2013-07-02 06:59:00,
2013-07-02 03:04:00,59.6,47.8,30.10,NE,39,0.0,4.0,65,0.00,OVC,OVC,0.00,WeatherDisplay:10.37,2013-07-02 07:04:00,
2013-07-02 03:09:00,59.8,48.0,30.10,NE,38,0.0,2.0,65,0.00,OVC,OVC,0.00,WeatherDisplay:10.37,2013-07-02 07:09:00,
2013-07-02 03:14:00,59.9,47.7,30.10,NE,39,0.0,2.0,64,0.00,OVC,OVC,0.00,WeatherDisplay:10.37,2013-07-02 07:14:00,
2013-07-02 03:19:00,60.1,47.0,30.10,ENE,57,0.0,1.0,62,0.00,OVC,OVC,0.00,WeatherDisplay:10.37,2013-07-02 07:19:00,
2013-07-02 03:24:00,60.0,47.8,30.10,NE,56,0.0,1.0,64,0.00,OVC,OVC,0.00,WeatherDisplay:10.37,2013-07-02 07:24:00,
2013-07-02 03:29:00,60.1,47.0,30.10,NNE,28,0.0,1.0,62,0.00,OVC,OVC,0.00,WeatherDisplay:10.37,2013-07-02 07:29:00,
2013-07-02 03:34:00,60.3,46.8,30.10,ENE,65,0.0,4.0,61,0.00,OVC,OVC,0.00,WeatherDisplay:10.37,2013-07-02 07:34:00,
2013-07-02 03:39:00,60.5,47.4,30.10,East,90,0.0,3.0,62,0.00,OVC,OVC,0.00,WeatherDisplay:10.37,2013-07-02 07:39:00,
2013-07-02 03:44:00,60.5,47.4,30.10,ENE,70,0.0,4.0,62,0.00,OVC,OVC,0.00,WeatherDisplay:10.37,2013-07-02 07:44:00,
2013-07-02 03:49:00,60.5,47.9,30.10,NE,55,0.0,3.0,63,0.00,OVC,OVC,0.00,WeatherDisplay:10.37,2013-07-02 07:49:00,
2013-07-02 03:54:00,60.6,47.5,30.10,ENE,67,0.0,2.0,62,0.00,OVC,OVC,0.00,WeatherDisplay:10.37,2013-07-02 07:54:00,
2013-07-02 03:59:00,60.6,47.1,30.10,ENE,59,1.0,9.0,61,0.00,OVC,OVC,0.00,WeatherDisplay:10.37,2013-07-02 07:59:00,
2013-07-02 04:04:00,60.8,47.3,30.10,ENE,59,0.0,2.0,61,0.00,OVC,OVC,0.00,WeatherDisplay:10.37,2013-07-02 08:04:00,
2013-07-02 04:09:00,60.8,47.3,30.10,ENE,69,1.0,6.0,61,0.00,OVC,OVC,0.00,WeatherDisplay:10.37,2013-07-02 08:09:00,
2013-07-02 04:14:00,61.0,47.9,30.10,ENE,74,1.0,6.0,62,0.00,OVC,OVC,0.00,WeatherDisplay:10.37,2013-07-02 08:14:00,
2013-07-02 04:19:00,61.0,47.4,30.10,ENE,68,0.0,4.0,61,0.00,OVC,OVC,0.00,WeatherDisplay:10.37,2013-07-02 08:19:00,
2013-07-02 04:24:00,61.0,47.9,30.10,NNE,18,0.0,2.0,62,0.00,OVC,OVC,0.00,WeatherDisplay:10.37,2013-07-02 08:24:00,
2013-07-02 04:29:00,60.9,46.9,30.10,NE,55,0.0,4.0,60,0.00,OVC,OVC,0.00,WeatherDisplay:10.37,2013-07-02 08:29:00,
2013-07-02 04:34:00,61.0,47.0,30.10,East,81,0.0,1.0,60,0.00,OVC,OVC,0.00,WeatherDisplay:10.37,2013-07-02 08:34:00,
2013-07-02 04:39:00,61.0,47.4,30.10,ENE,76,0.0,2.0,61,0.00,OVC,OVC,0.00,WeatherDisplay:10.37,2013-07-02 08:39:00,
2013-07-02 04:44:00,61.0,47.4,30.10,East,84,0.0,3.0,61,0.00,OVC,OVC,0.00,WeatherDisplay:10.37,2013-07-02 08:44:00,
2013-07-02 04:49:00,61.0,47.1,30.10,East,84,0.0,7.0,60,0.00,OVC,OVC,0.00,WeatherDisplay:10.37,2013-07-02 08:49:00,
2013-07-02 04:54:00,60.9,47.8,30.10,East,86,0.0,1.0,62,0.00,OVC,OVC,0.00,WeatherDisplay:10.37,2013-07-02 08:54:00,
2013-07-02 04:59:00,60.7,47.6,30.10,East,90,0.0,3.0,62,0.00,OVC,OVC,0.00,WeatherDisplay:10.37,2013-07-02 08:59:00,
2013-07-02 05:04:00,60.7,47.6,30.11,NE,50,0.0,3.0,62,0.00,OVC,OVC,0.00,WeatherDisplay:10.37,2013-07-02 09:04:00,
2013-07-02 05:09:00,60.7,47.6,30.11,NNE,24,0.0,5.0,62,0.00,OVC,OVC,0.00,WeatherDisplay:10.37,2013-07-02 09:09:00,
2013-07-02 05:14:00,60.7,47.6,30.10,NE,34,0.0,1.0,62,0.00,OVC,OVC,0.00,WeatherDisplay:10.37,2013-07-02 09:14:00,
2013-07-02 05:19:00,60.7,48.0,30.10,ENE,68,0.0,1.0,63,0.00,OVC,OVC,0.00,WeatherDisplay:10.37,2013-07-02 09:19:00,
2013-07-02 05:24:00,60.6,47.9,30.10,ENE,73,0.0,2.0,63,0.00,OVC,OVC,0.00,WeatherDisplay:10.37,2013-07-02 09:24:00,
2013-07-02 05:29:00,60.6,47.9,30.10,ENE,74,0.0,0.0,63,0.00,OVC,OVC,0.00,WeatherDisplay:10.37,2013-07-02 09:29:00,
2013-07-02 05:34:00,60.6,47.9,30.10,ENE,75,1.0,7.0,63,0.00,OVC,OVC,0.00,WeatherDisplay:10.37,2013-07-02 09:34:00,
2013-07-02 05:39:00,60.7,48.0,30.10,ENE,57,0.0,2.0,63,0.00,OVC,OVC,0.00,WeatherDisplay:10.37,2013-07-02 09:39:00,
2013-07-02 05:44:00,60.7,48.4,30.10,ENE,59,0.0,2.0,64,0.00,OVC,OVC,0.00,WeatherDisplay:10.37,2013-07-02 09:44:00,
2013-07-02 05:49:00,60.7,48.4,30.11,East,92,1.0,4.0,64,0.00,OVC,OVC,0.00,WeatherDisplay:10.37,2013-07-02 09:49:00,
2013-07-02 05:54:00,60.7,48.0,30.11,ESE,109,0.0,2.0,63,0.00,OVC,OVC,0.00,WeatherDisplay:10.37,2013-07-02 09:54:00,
2013-07-02 05:59:00,60.7,48.8,30.11,ENE,61,0.0,3.0,65,0.00,OVC,OVC,0.00,WeatherDisplay:10.37,2013-07-02 09:59:00,
2013-07-02 06:04:00,60.6,48.4,30.11,ENE,74,0.0,3.0,64,0.00,OVC,OVC,0.00,WeatherDisplay:10.37,2013-07-02 10:04:00,
2013-07-02 06:09:00,60.8,48.5,30.11,NNE,32,2.0,7.0,64,0.00,OVC,OVC,0.00,WeatherDisplay:10.37,2013-07-02 10:09:00,
2013-07-02 06:14:00,60.9,48.6,30.11,NE,55,0.0,4.0,64,0.00,OVC,OVC,0.00,WeatherDisplay:10.37,2013-07-02 10:14:00,
2013-07-02 06:19:00,61.0,48.7,30.11,ENE,61,1.0,5.0,64,0.00,OVC,OVC,0.00,WeatherDisplay:10.37,2013-07-02 10:19:00,
2013-07-02 06:24:00,61.0,48.7,30.12,ENE,68,0.0,3.0,64,0.00,OVC,OVC,0.00,WeatherDisplay:10.37,2013-07-02 10:24:00,
2013-07-02 06:29:00,61.0,49.6,30.12,East,79,1.0,4.0,66,0.00,OVC,OVC,0.00,WeatherDisplay:10.37,2013-07-02 10:29:00,
2013-07-02 06:34:00,60.9,49.5,30.12,ENE,69,0.0,7.0,66,0.00,OVC,OVC,0.00,WeatherDisplay:10.37,2013-07-02 10:34:00,
2013-07-02 06:39:00,60.8,49.4,30.12,NE,56,0.0,2.0,66,0.00,OVC,OVC,0.00,WeatherDisplay:10.37,2013-07-02 10:39:00,
2013-07-02 06:44:00,60.7,49.7,30.12,NE,54,0.0,4.0,67,0.00,OVC,OVC,0.00,WeatherDisplay:10.37,2013-07-02 10:44:00,
2013-07-02 06:49:00,60.8,49.8,30.12,NE,49,0.0,4.0,67,0.00,OVC,OVC,0.00,WeatherDisplay:10.37,2013-07-02 10:49:00,
2013-07-02 06:54:00,61.0,50.0,30.12,NE,51,0.0,7.0,67,0.00,OVC,OVC,0.00,WeatherDisplay:10.37,2013-07-02 10:54:00,
2013-07-02 06:59:00,61.2,49.3,30.12,NE,49,1.0,7.0,65,0.00,OVC,OVC,0.00,WeatherDisplay:10.37,2013-07-02 10:59:00,
2013-07-02 07:04:00,61.5,50.0,30.12,ENE,69,0.0,7.0,66,0.00,OVC,OVC,0.00,WeatherDisplay:10.37,2013-07-02 11:04:00,
2013-07-02 07:09:00,61.6,50.5,30.13,ENE,68,0.0,3.0,67,0.00,OVC,OVC,0.00,WeatherDisplay:10.37,2013-07-02 11:09:00,
2013-07-02 07:14:00,61.5,50.5,30.13,ENE,77,1.0,5.0,67,0.00,OVC,OVC,0.00,WeatherDisplay:10.37,2013-07-02 11:14:00,
2013-07-02 07:19:00,61.4,50.3,30.13,ENE,73,2.0,8.0,67,0.00,OVC,OVC,0.00,WeatherDisplay:10.37,2013-07-02 11:19:00,
2013-07-02 07:24:00,61.2,50.2,30.13,ENE,64,0.0,2.0,67,0.00,OVC,OVC,0.00,WeatherDisplay:10.37,2013-07-02 11:24:00,
2013-07-02 07:29:00,61.1,50.8,30.13,ENE,67,0.0,2.0,69,0.00,OVC,OVC,0.00,WeatherDisplay:10.37,2013-07-02 11:29:00,
2013-07-02 07:34:00,60.9,51.0,30.13,NNE,32,1.0,5.0,70,0.00,OVC,OVC,0.00,WeatherDisplay:10.37,2013-07-02 11:34:00,
2013-07-02 07:39:00,60.8,51.0,30.13,NE,42,0.0,3.0,70,0.00,OVC,OVC,0.00,WeatherDisplay:10.37,2013-07-02 11:39:00,
2013-07-02 07:44:00,61.0,50.8,30.13,SE,125,0.0,6.0,69,0.00,OVC,OVC,0.00,WeatherDisplay:10.37,2013-07-02 11:44:00,
2013-07-02 07:49:00,61.2,50.5,30.13,SSE,147,0.0,2.0,68,0.00,OVC,OVC,0.00,WeatherDisplay:10.37,2013-07-02 11:49:00,
2013-07-02 07:54:00,61.5,51.6,30.13,ENE,76,0.0,6.0,70,0.00,OVC,OVC,0.00,WeatherDisplay:10.37,2013-07-02 11:54:00,
2013-07-02 08:04:00,61.3,51.1,30.13,ENE,76,1.0,5.0,69,0.00,OVC,OVC,0.00,WeatherDisplay:10.37,2013-07-02 12:04:00,
2013-07-02 08:09:00,61.2,51.3,30.13,NE,56,0.0,2.0,70,0.00,OVC,OVC,0.00,WeatherDisplay:10.37,2013-07-02 12:09:00,
2013-07-02 08:14:00,61.2,51.3,30.13,NE,53,0.0,4.0,70,0.00,OVC,OVC,0.00,WeatherDisplay:10.37,2013-07-02 12:14:00,
2013-07-02 08:19:00,61.4,51.5,30.13,ENE,73,0.0,3.0,70,0.00,OVC,OVC,0.00,WeatherDisplay:10.37,2013-07-02 12:19:00,
2013-07-02 08:24:00,61.6,51.3,30.13,ENE,71,1.0,6.0,69,0.00,OVC,OVC,0.00,WeatherDisplay:10.37,2013-07-02 12:24:00,
2013-07-02 08:29:00,61.7,51.8,30.13,East,83,1.0,5.0,70,0.00,OVC,OVC,0.00,WeatherDisplay:10.37,2013-07-02 12:29:00,
2013-07-02 08:34:00,61.8,51.9,30.13,East,82,1.0,5.0,70,0.00,OVC,OVC,0.00,WeatherDisplay:10.37,2013-07-02 12:34:00,
2013-07-02 08:39:00,61.9,51.6,30.13,ENE,73,0.0,3.0,69,0.00,OVC,OVC,0.00,WeatherDisplay:10.37,2013-07-02 12:39:00,
2013-07-02 08:49:00,61.9,52.0,30.12,ENE,70,1.0,4.0,70,0.00,OVC,OVC,0.00,WeatherDisplay:10.37,2013-07-02 12:49:00,
2013-07-02 08:54:00,61.9,52.4,30.13,NE,41,0.0,3.0,71,0.00,OVC,OVC,0.00,WeatherDisplay:10.37,2013-07-02 12:54:00,
2013-07-02 08:59:00,61.8,51.9,30.13,NE,44,0.0,1.0,70,0.00,OVC,OVC,0.00,WeatherDisplay:10.37,2013-07-02 12:59:00,
2013-07-02 09:04:00,62.0,53.2,30.13,ENE,72,0.0,1.0,73,0.00,OVC,OVC,0.00,WeatherDisplay:10.37,2013-07-02 13:04:00,
2013-07-02 09:09:00,62.2,52.3,30.12,ENE,73,2.0,8.0,70,0.00,OVC,OVC,0.00,WeatherDisplay:10.37,2013-07-02 13:09:00,
2013-07-02 09:14:00,62.1,52.6,30.13,ENE,67,2.0,7.0,71,0.00,OVC,OVC,0.00,WeatherDisplay:10.37,2013-07-02 13:14:00,
2013-07-02 09:19:00,61.9,52.0,30.12,NE,47,1.0,7.0,70,0.00,OVC,OVC,0.00,WeatherDisplay:10.37,2013-07-02 13:19:00,
2013-07-02 09:24:00,61.8,52.3,30.13,ENE,75,0.0,9.0,71,0.00,OVC,OVC,0.00,WeatherDisplay:10.37,2013-07-02 13:24:00,
2013-07-02 09:29:00,61.6,52.5,30.12,East,95,1.0,3.0,72,0.00,OVC,OVC,0.00,WeatherDisplay:10.37,2013-07-02 13:29:00,
2013-07-02 09:34:00,61.6,52.5,30.12,East,83,1.0,4.0,72,0.00,OVC,OVC,0.00,WeatherDisplay:10.37,2013-07-02 13:34:00,
2013-07-02 09:39:00,61.7,53.0,30.12,ESE,114,0.0,6.0,73,0.00,OVC,OVC,0.00,WeatherDisplay:10.37,2013-07-02 13:39:00,
2013-07-02 09:44:00,62.0,52.9,30.12,East,100,0.0,5.0,72,0.00,OVC,OVC,0.00,WeatherDisplay:10.37,2013-07-02 13:44:00,
2013-07-02 09:49:00,62.2,52.7,30.12,East,92,0.0,9.0,71,0.00,OVC,OVC,0.00,WeatherDisplay:10.37,2013-07-02 13:49:00,
2013-07-02 09:54:00,62.1,52.6,30.12,ENE,60,2.0,7.0,71,0.00,OVC,OVC,0.00,WeatherDisplay:10.37,2013-07-02 13:54:00,
2013-07-02 09:59:00,62.0,53.2,30.12,NNE,33,1.0,7.0,73,0.00,OVC,OVC,0.00,WeatherDisplay:10.37,2013-07-02 13:59:00,
2013-07-02 10:04:00,61.9,53.1,30.12,NE,43,0.0,5.0,73,0.00,OVC,OVC,0.00,WeatherDisplay:10.37,2013-07-02 14:04:00,
2013-07-02 10:09:00,61.8,53.1,30.12,NE,55,0.0,2.0,73,0.00,OVC,OVC,0.00,WeatherDisplay:10.37,2013-07-02 14:09:00,
2013-07-02 10:14:00,61.8,53.4,30.12,NNE,33,1.0,5.0,74,0.00,OVC,OVC,0.00,WeatherDisplay:10.37,2013-07-02 14:14:00,
2013-07-02 10:19:00,61.7,53.0,30.12,ENE,64,0.0,3.0,73,0.00,OVC,OVC,0.00,WeatherDisplay:10.37,2013-07-02 14:19:00,
2013-07-02 10:24:00,61.7,53.7,30.12,East,90,0.0,2.0,75,0.00,OVC,OVC,0.00,WeatherDisplay:10.37,2013-07-02 14:24:00,
2013-07-02 10:29:00,61.8,53.4,30.12,North,358,0.0,3.0,74,0.00,OVC,OVC,0.00,WeatherDisplay:10.37,2013-07-02 14:29:00,
2013-07-02 10:34:00,61.9,53.2,30.12,NE,38,1.0,7.0,73,0.00,OVC,OVC,0.00,WeatherDisplay:10.37,2013-07-02 14:34:00,
2013-07-02 10:39:00,62.0,53.6,30.12,East,92,0.0,7.0,74,0.00,OVC,OVC,0.00,WeatherDisplay:10.37,2013-07-02 14:39:00,
2013-07-02 10:44:00,62.1,53.3,30.13,ESE,117,0.0,3.0,73,0.00,OVC,OVC,0.00,WeatherDisplay:10.37,2013-07-02 14:44:00,
2013-07-02 10:49:00,62.2,53.8,30.13,ENE,60,0.0,8.0,74,0.00,OVC,OVC,0.00,WeatherDisplay:10.37,2013-07-02 14:49:00,
2013-07-02 10:54:00,62.3,53.9,30.13,ENE,71,0.0,7.0,74,0.00,OVC,OVC,0.00,WeatherDisplay:10.37,2013-07-02 14:54:00,
2013-07-02 10:59:00,62.4,54.0,30.13,East,93,1.0,8.0,74,0.00,OVC,OVC,0.00,WeatherDisplay:10.37,2013-07-02 14:59:00,
2013-07-02 11:04:00,62.4,54.0,30.13,East,84,0.0,4.0,74,0.00,OVC,OVC,0.00,WeatherDisplay:10.37,2013-07-02 15:04:00,
2013-07-02 11:09:00,62.6,54.2,30.13,East,94,0.0,2.0,74,0.00,OVC,OVC,0.00,WeatherDisplay:10.37,2013-07-02 15:09:00,
2013-07-02 11:14:00,63.1,54.7,30.13,East,90,2.0,8.0,74,0.00,OVC,OVC,0.00,WeatherDisplay:10.37,2013-07-02 15:14:00,
2013-07-02 11:19:00,63.3,55.2,30.13,ENE,77,0.0,5.0,75,0.00,OVC,OVC,0.00,WeatherDisplay:10.37,2013-07-02 15:19:00,
2013-07-02 11:24:00,63.6,55.5,30.13,ENE,64,1.0,3.0,75,0.00,OVC,OVC,0.00,WeatherDisplay:10.37,2013-07-02 15:24:00,
2013-07-02 11:29:00,63.5,55.4,30.13,East,100,0.0,3.0,75,0.00,OVC,OVC,0.00,WeatherDisplay:10.37,2013-07-02 15:29:00,
2013-07-02 11:39:00,63.2,55.1,30.14,ENE,67,2.0,6.0,75,0.00,OVC,OVC,0.00,WeatherDisplay:10.37,2013-07-02 15:39:00,
2013-07-02 11:44:00,63.0,54.9,30.14,ENE,76,1.0,7.0,75,0.00,OVC,OVC,0.00,WeatherDisplay:10.37,2013-07-02 15:44:00,
2013-07-02 11:49:00,63.0,55.3,30.13,ENE,77,1.0,7.0,76,0.00,OVC,OVC,0.00,WeatherDisplay:10.37,2013-07-02 15:49:00,
2013-07-02 11:54:00,63.3,56.3,30.13,East,82,0.0,3.0,78,0.00,OVC,OVC,0.00,WeatherDisplay:10.37,2013-07-02 15:54:00,
2013-07-02 11:59:00,63.5,55.8,30.13,ENE,70,2.0,9.0,76,0.00,OVC,OVC,0.00,WeatherDisplay:10.37,2013-07-02 15:59:00,
2013-07-02 12:04:00,63.5,55.8,30.13,ENE,73,0.0,7.0,76,0.00,OVC,OVC,0.00,WeatherDisplay:10.37,2013-07-02 16:04:00,
2013-07-02 12:09:00,63.5,55.4,30.13,ENE,75,1.0,7.0,75,0.00,OVC,OVC,0.00,WeatherDisplay:10.37,2013-07-02 16:09:00,
2013-07-02 12:14:00,63.7,56.0,30.13,ENE,75,0.0,3.0,76,0.00,OVC,OVC,0.00,WeatherDisplay:10.37,2013-07-02 16:14:00,
2013-07-02 12:19:00,63.9,56.2,30.13,ENE,60,1.0,6.0,76,0.00,OVC,OVC,0.00,WeatherDisplay:10.37,2013-07-02 16:19:00,
2013-07-02 12:24:00,64.3,56.5,30.13,East,85,0.0,8.0,76,0.00,OVC,OVC,0.00,WeatherDisplay:10.37,2013-07-02 16:24:00,
2013-07-02 12:34:00,64.5,56.4,30.13,ENE,74,0.0,3.0,75,0.00,OVC,OVC,0.00,WeatherDisplay:10.37,2013-07-02 16:34:00,
2013-07-02 12:39:00,65.2,57.1,30.13,East,87,0.0,4.0,75,0.00,OVC,OVC,0.00,WeatherDisplay:10.37,2013-07-02 16:39:00,
2013-07-02 12:44:00,65.5,57.0,30.12,ESE,107,1.0,5.0,74,0.00,OVC,OVC,0.00,WeatherDisplay:10.37,2013-07-02 16:44:00,
2013-07-02 12:49:00,65.5,57.0,30.13,ESE,104,2.0,9.0,74,0.00,OVC,OVC,0.00,WeatherDisplay:10.37,2013-07-02 16:49:00,
2013-07-02 12:54:00,65.8,58.0,30.13,East,85,0.0,5.0,76,0.00,OVC,OVC,0.00,WeatherDisplay:10.37,2013-07-02 16:54:00,
2013-07-02 12:59:00,65.9,57.7,30.12,ENE,70,1.0,6.0,75,0.00,OVC,OVC,0.00,WeatherDisplay:10.37,2013-07-02 16:59:00,
2013-07-02 13:04:00,65.9,57.7,30.12,NE,51,0.0,6.0,75,0.00,OVC,OVC,0.00,WeatherDisplay:10.37,2013-07-02 17:04:00,
2013-07-02 13:09:00,65.8,57.3,30.12,NE,48,1.0,10.0,74,0.00,OVC,OVC,0.00,WeatherDisplay:10.37,2013-07-02 17:09:00,
2013-07-02 13:14:00,66.0,57.1,30.12,NE,43,2.0,14.0,73,0.00,OVC,OVC,0.00,WeatherDisplay:10.37,2013-07-02 17:14:00,
2013-07-02 13:19:00,66.3,57.4,30.12,ENE,64,2.0,10.0,73,0.00,OVC,OVC,0.00,WeatherDisplay:10.37,2013-07-02 17:19:00,
2013-07-02 13:24:00,66.6,58.1,30.13,East,80,1.0,8.0,74,0.00,OVC,OVC,0.00,WeatherDisplay:10.37,2013-07-02 17:24:00,
2013-07-02 13:29:00,67.3,57.9,30.12,East,95,0.0,5.0,72,0.00,OVC,OVC,0.00,WeatherDisplay:10.37,2013-07-02 17:29:00,
2013-07-02 13:34:00,67.3,57.9,30.12,East,97,1.0,9.0,72,0.00,OVC,OVC,0.00,WeatherDisplay:10.37,2013-07-02 17:34:00,
2013-07-02 13:39:00,67.6,59.0,30.12,ESE,103,1.0,5.0,74,0.00,OVC,OVC,0.00,WeatherDisplay:10.37,2013-07-02 17:39:00,
2013-07-02 13:44:00,67.5,58.9,30.12,NE,48,0.0,8.0,74,0.00,OVC,OVC,0.00,WeatherDisplay:10.37,2013-07-02 17:44:00,
2013-07-02 13:49:00,67.7,59.1,30.12,NE,42,0.0,7.0,74,0.00,OVC,OVC,0.00,WeatherDisplay:10.37,2013-07-02 17:49:00,
2013-07-02 13:54:00,67.6,58.6,30.12,East,88,0.0,3.0,73,0.00,OVC,OVC,0.00,WeatherDisplay:10.37,2013-07-02 17:54:00,
2013-07-02 13:59:00,67.7,58.4,30.12,East,80,3.0,10.0,72,0.00,OVC,OVC,0.00,WeatherDisplay:10.37,2013-07-02 17:59:00,
2013-07-02 14:09:00,67.3,57.9,30.12,ENE,71,2.0,8.0,72,0.00,OVC,OVC,0.00,WeatherDisplay:10.37,2013-07-02 18:09:00,
2013-07-02 14:14:00,66.8,58.3,30.12,ENE,77,1.0,12.0,74,0.00,OVC,OVC,0.00,WeatherDisplay:10.37,2013-07-02 18:14:00,
2013-07-02 14:19:00,67.5,58.2,30.11,ENE,73,1.0,9.0,72,0.00,OVC,OVC,0.00,WeatherDisplay:10.37,2013-07-02 18:19:00,
2013-07-02 14:24:00,67.7,57.6,30.11,ENE,72,5.0,10.0,70,0.00,OVC,OVC,0.00,WeatherDisplay:10.37,2013-07-02 18:24:00,
2013-07-02 14:29:00,67.9,59.7,30.11,ENE,71,1.0,6.0,75,0.00,OVC,OVC,0.00,WeatherDisplay:10.37,2013-07-02 18:29:00,
2013-07-02 14:34:00,68.7,59.3,30.11,East,95,1.0,9.0,72,0.00,OVC,OVC,0.00,WeatherDisplay:10.37,2013-07-02 18:34:00,
2013-07-02 14:39:00,67.8,58.0,30.11,East,89,2.0,9.0,71,0.00,OVC,OVC,0.00,WeatherDisplay:10.37,2013-07-02 18:39:00,
2013-07-02 14:44:00,67.7,58.7,30.11,ENE,67,1.0,7.0,73,0.00,OVC,OVC,0.00,WeatherDisplay:10.37,2013-07-02 18:44:00,
2013-07-02 14:49:00,68.5,59.1,30.11,NE,56,1.0,6.0,72,0.00,OVC,OVC,0.00,WeatherDisplay:10.37,2013-07-02 18:49:00,
2013-07-02 14:54:00,68.4,58.3,30.11,ENE,68,1.0,10.0,70,0.00,OVC,OVC,0.00,WeatherDisplay:10.37,2013-07-02 18:54:00,
2013-07-02 14:59:00,68.6,59.6,30.11,ENE,78,0.0,6.0,73,0.00,OVC,OVC,0.00,WeatherDisplay:10.37,2013-07-02 18:59:00,
2013-07-02 15:04:00,68.9,58.7,30.11,ENE,77,1.0,2.0,70,0.00,OVC,OVC,0.00,WeatherDisplay:10.37,2013-07-02 19:04:00,
2013-07-02 15:09:00,68.9,59.9,30.11,East,95,0.0,3.0,73,0.00,OVC,OVC,0.00,WeatherDisplay:10.37,2013-07-02 19:09:00,
2013-07-02 15:14:00,68.8,59.4,30.11,NE,48,1.0,7.0,72,0.00,OVC,OVC,0.00,WeatherDisplay:10.37,2013-07-02 19:14:00,
2013-07-02 15:19:00,68.7,59.3,30.11,ENE,68,2.0,6.0,72,0.00,OVC,OVC,0.00,WeatherDisplay:10.37,2013-07-02 19:19:00,
2013-07-02 15:24:00,68.4,59.0,30.11,ENE,77,0.0,8.0,72,0.00,OVC,OVC,0.00,WeatherDisplay:10.37,2013-07-02 19:24:00,
2013-07-02 15:29:00,67.9,58.9,30.11,ENE,77,2.0,6.0,73,0.00,OVC,OVC,0.00,WeatherDisplay:10.37,2013-07-02 19:29:00,
2013-07-02 15:34:00,67.1,58.5,30.11,ENE,69,0.0,8.0,74,0.00,OVC,OVC,0.00,WeatherDisplay:10.37,2013-07-02 19:34:00,
2013-07-02 15:39:00,67.1,58.9,30.11,ENE,65,0.0,7.0,75,0.00,OVC,OVC,0.00,WeatherDisplay:10.37,2013-07-02 19:39:00,
2013-07-02 15:44:00,66.8,58.2,30.11,ENE,63,0.0,5.0,74,0.00,OVC,OVC,0.00,WeatherDisplay:10.37,2013-07-02 19:44:00,
2013-07-02 15:49:00,66.9,58.7,30.11,ESE,103,0.0,5.0,75,0.00,OVC,OVC,0.00,WeatherDisplay:10.37,2013-07-02 19:49:00,
2013-07-02 15:54:00,66.9,58.3,30.11,ESE,116,1.0,8.0,74,0.00,OVC,OVC,0.00,WeatherDisplay:10.37,2013-07-02 19:54:00,
2013-07-02 15:59:00,67.6,58.6,30.11,ESE,110,2.0,9.0,73,0.00,OVC,OVC,0.00,WeatherDisplay:10.37,2013-07-02 19:59:00,
2013-07-02 16:04:00,67.6,58.7,30.11,ENE,73,1.0,10.0,73,0.00,OVC,OVC,0.00,WeatherDisplay:10.37,2013-07-02 20:04:00,
2013-07-02 16:09:00,67.8,58.4,30.10,East,84,2.0,12.0,72,0.00,OVC,OVC,0.00,WeatherDisplay:10.37,2013-07-02 20:09:00,
2013-07-02 16:14:00,67.8,58.8,30.10,ENE,73,2.0,10.0,73,0.00,OVC,OVC,0.00,WeatherDisplay:10.37,2013-07-02 20:14:00,
2013-07-02 16:19:00,68.2,58.8,30.10,ENE,76,2.0,9.0,72,0.00,OVC,OVC,0.00,WeatherDisplay:10.37,2013-07-02 20:19:00,
2013-07-02 16:24:00,68.6,60.0,30.10,SE,127,0.0,9.0,74,0.00,OVC,OVC,0.00,WeatherDisplay:10.37,2013-07-02 20:24:00,
2013-07-02 16:29:00,69.1,60.1,30.10,ESE,102,1.0,8.0,73,0.00,OVC,OVC,0.00,WeatherDisplay:10.37,2013-07-02 20:29:00,
2013-07-02 16:34:00,68.6,59.6,30.10,ENE,69,1.0,7.0,73,0.00,OVC,OVC,0.00,WeatherDisplay:10.37,2013-07-02 20:34:00,
2013-07-02 16:39:00,68.1,59.1,30.10,East,88,2.0,7.0,73,0.00,OVC,OVC,0.00,WeatherDisplay:10.37,2013-07-02 20:39:00,
2013-07-02 16:44:00,68.0,60.2,30.10,ENE,69,2.0,6.0,76,0.00,OVC,OVC,0.00,WeatherDisplay:10.37,2013-07-02 20:44:00,
2013-07-02 16:54:00,67.8,59.6,30.10,ENE,71,2.0,7.0,75,0.00,OVC,OVC,0.00,WeatherDisplay:10.37,2013-07-02 20:54:00,
2013-07-02 16:59:00,67.1,59.3,30.09,East,79,0.0,10.0,76,0.00,OVC,OVC,0.00,WeatherDisplay:10.37,2013-07-02 20:59:00,
2013-07-02 17:04:00,67.1,59.6,30.09,ENE,74,0.0,7.0,77,0.00,OVC,OVC,0.00,WeatherDisplay:10.37,2013-07-02 21:04:00,
2013-07-02 17:09:00,66.9,59.8,30.09,NE,41,1.0,5.0,78,0.00,OVC,OVC,0.00,WeatherDisplay:10.37,2013-07-02 21:09:00,
2013-07-02 17:14:00,66.7,59.6,30.09,ENE,64,0.0,2.0,78,0.00,BKN,OVC,0.00,WeatherDisplay:10.37,2013-07-02 21:14:00,
2013-07-02 17:19:00,66.8,59.4,30.09,East,87,1.0,5.0,77,0.00,BKN,OVC,0.00,WeatherDisplay:10.37,2013-07-02 21:19:00,
2013-07-02 17:24:00,66.7,59.3,30.09,ENE,63,3.0,8.0,77,0.00,BKN,OVC,0.00,WeatherDisplay:10.37,2013-07-02 21:24:00,
2013-07-02 17:29:00,66.5,59.4,30.09,ENE,68,1.0,7.0,78,0.00,BKN,OVC,0.00,WeatherDisplay:10.37,2013-07-02 21:29:00,
2013-07-02 17:34:00,66.6,59.9,30.09,ENE,58,0.0,5.0,79,0.00,BKN,OVC,0.00,WeatherDisplay:10.37,2013-07-02 21:34:00,
2013-07-02 17:39:00,66.5,59.8,30.09,East,87,1.0,4.0,79,0.00,BKN,OVC,0.00,WeatherDisplay:10.37,2013-07-02 21:39:00,
2013-07-02 17:44:00,66.3,59.6,30.09,ENE,74,3.0,10.0,79,0.00,BKN,OVC,0.00,WeatherDisplay:10.37,2013-07-02 21:44:00,
2013-07-02 17:49:00,66.0,59.7,30.09,ENE,67,0.0,3.0,80,0.00,BKN,OVC,0.00,WeatherDisplay:10.37,2013-07-02 21:49:00,
2013-07-02 17:54:00,66.1,59.8,30.09,ENE,73,1.0,3.0,80,0.00,BKN,OVC,0.00,WeatherDisplay:10.37,2013-07-02 21:54:00,
2013-07-02 17:59:00,66.5,60.1,30.09,East,86,0.0,3.0,80,0.00,BKN,OVC,0.00,WeatherDisplay:10.37,2013-07-02 21:59:00,
2013-07-02 18:04:00,67.0,59.9,30.09,East,84,1.0,7.0,78,0.00,BKN,OVC,0.00,WeatherDisplay:10.37,2013-07-02 22:04:00,
2013-07-02 18:09:00,66.6,59.5,30.09,East,91,1.0,10.0,78,0.00,BKN,OVC,0.00,WeatherDisplay:10.37,2013-07-02 22:09:00,
2013-07-02 18:14:00,66.6,59.9,30.09,East,88,0.0,1.0,79,0.00,BKN,OVC,0.00,WeatherDisplay:10.37,2013-07-02 22:14:00,
2013-07-02 18:19:00,66.4,59.3,30.09,NE,45,1.0,6.0,78,0.00,BKN,OVC,0.00,WeatherDisplay:10.37,2013-07-02 22:19:00,
2013-07-02 18:24:00,65.8,59.1,30.09,ENE,66,0.0,5.0,79,0.00,BKN,OVC,0.00,WeatherDisplay:10.37,2013-07-02 22:24:00,
2013-07-02 18:29:00,65.6,58.9,30.09,NE,52,1.0,6.0,79,0.00,BKN,OVC,0.00,WeatherDisplay:10.37,2013-07-02 22:29:00,
2013-07-02 18:34:00,65.5,59.5,30.10,ENE,71,0.0,5.0,81,0.00,BKN,OVC,0.00,WeatherDisplay:10.37,2013-07-02 22:34:00,
2013-07-02 18:39:00,65.5,59.2,30.10,ENE,60,1.0,3.0,80,0.00,BKN,OVC,0.00,WeatherDisplay:10.37,2013-07-02 22:39:00,
2013-07-02 18:44:00,65.4,59.4,30.10,ENE,72,0.0,5.0,81,0.00,BKN,OVC,0.00,WeatherDisplay:10.37,2013-07-02 22:44:00,
2013-07-02 18:49:00,65.3,59.3,30.10,East,87,0.0,3.0,81,0.00,BKN,OVC,0.00,WeatherDisplay:10.37,2013-07-02 22:49:00,
2013-07-02 18:54:00,65.2,59.2,30.10,East,81,0.0,5.0,81,0.00,BKN,OVC,0.00,WeatherDisplay:10.37,2013-07-02 22:54:00,
2013-07-02 18:59:00,65.2,59.2,30.10,East,82,0.0,5.0,81,0.00,BKN,OVC,0.00,WeatherDisplay:10.37,2013-07-02 22:59:00,
2013-07-02 19:09:00,65.2,59.2,30.10,ENE,77,0.0,2.0,81,0.00,BKN,OVC,0.00,WeatherDisplay:10.37,2013-07-02 23:09:00,
2013-07-02 19:14:00,65.1,59.1,30.10,East,85,1.0,4.0,81,0.00,BKN,OVC,0.00,WeatherDisplay:10.37,2013-07-02 23:14:00,
2013-07-02 19:19:00,65.0,59.0,30.10,ENE,76,1.0,5.0,81,0.00,BKN,OVC,0.00,WeatherDisplay:10.37,2013-07-02 23:19:00,
2013-07-02 19:24:00,64.9,59.3,30.10,East,79,0.0,4.0,82,0.00,BKN,OVC,0.00,WeatherDisplay:10.37,2013-07-02 23:24:00,
2013-07-02 19:29:00,64.9,58.6,30.10,East,89,0.0,2.0,80,0.00,BKN,OVC,0.00,WeatherDisplay:10.37,2013-07-02 23:29:00,
2013-07-02 19:34:00,64.9,58.6,30.10,ENE,76,0.0,6.0,80,0.00,BKN,OVC,0.00,WeatherDisplay:10.37,2013-07-02 23:34:00,
2013-07-02 19:39:00,64.7,58.7,30.10,East,82,0.0,3.0,81,0.00,BKN,OVC,0.00,WeatherDisplay:10.37,2013-07-02 23:39:00,
2013-07-02 19:44:00,64.6,58.6,30.10,ENE,59,0.0,5.0,81,0.00,BKN,OVC,0.00,WeatherDisplay:10.37,2013-07-02 23:44:00,
2013-07-02 19:49:00,64.5,58.5,30.10,NE,56,0.0,10.0,81,0.00,BKN,OVC,0.00,WeatherDisplay:10.37,2013-07-02 23:49:00,
2013-07-02 19:59:00,64.3,58.7,30.10,SE,126,0.0,1.0,82,0.00,BKN,OVC,0.00,WeatherDisplay:10.37,2013-07-02 23:59:00,
2013-07-02 20:04:00,64.2,58.9,30.10,East,94,0.0,3.0,83,0.00,BKN,OVC,0.00,WeatherDisplay:10.37,2013-07-03 00:04:00,
2013-07-02 20:09:00,64.1,58.8,30.11,East,82,0.0,4.0,83,0.00,BKN,OVC,0.00,WeatherDisplay:10.37,2013-07-03 00:09:00,
2013-07-02 20:14:00,64.0,58.8,30.10,East,84,0.0,2.0,83,0.00,OVC,OVC,0.00,WeatherDisplay:10.37,2013-07-03 00:14:00,
2013-07-02 20:19:00,64.0,58.7,30.11,East,101,0.0,4.0,83,0.00,OVC,OVC,0.00,WeatherDisplay:10.37,2013-07-03 00:19:00,
2013-07-02 20:24:00,63.9,58.6,30.10,East,79,1.0,3.0,83,0.00,OVC,OVC,0.00,WeatherDisplay:10.37,2013-07-03 00:24:00,
2013-07-02 20:29:00,63.5,58.9,30.10,ENE,65,0.0,1.0,85,0.00,OVC,OVC,0.00,WeatherDisplay:10.37,2013-07-03 00:29:00,
2013-07-02 20:34:00,63.3,58.7,30.10,ENE,76,0.0,1.0,85,0.00,OVC,OVC,0.00,WeatherDisplay:10.37,2013-07-03 00:34:00,
2013-07-02 20:39:00,63.3,58.7,30.10,East,89,0.0,2.0,85,0.00,OVC,OVC,0.00,WeatherDisplay:10.37,2013-07-03 00:39:00,
2013-07-02 20:44:00,63.3,58.7,30.10,ESE,112,0.0,1.0,85,0.00,OVC,OVC,0.00,WeatherDisplay:10.37,2013-07-03 00:44:00,
2013-07-02 20:49:00,63.2,58.9,30.10,ESE,108,0.0,2.0,86,0.00,OVC,OVC,0.00,WeatherDisplay:10.37,2013-07-03 00:49:00,
2013-07-02 20:54:00,63.0,59.1,30.10,ESE,105,0.0,1.0,87,0.00,OVC,OVC,0.00,WeatherDisplay:10.37,2013-07-03 00:54:00,
2013-07-02 20:59:00,62.8,59.2,30.10,ESE,108,0.0,3.0,88,0.00,OVC,OVC,0.00,WeatherDisplay:10.37,2013-07-03 00:59:00,
2013-07-02 21:04:00,62.6,59.0,30.10,East,91,0.0,3.0,88,0.00,OVC,OVC,0.00,WeatherDisplay:10.37,2013-07-03 01:04:00,
2013-07-02 21:09:00,62.5,58.9,30.10,ENE,73,0.0,2.0,88,0.00,OVC,OVC,0.00,WeatherDisplay:10.37,2013-07-03 01:09:00,
2013-07-02 21:14:00,62.5,58.9,30.10,East,83,0.0,1.0,88,0.00,OVC,OVC,0.00,WeatherDisplay:10.37,2013-07-03 01:14:00,
2013-07-02 21:19:00,62.5,58.6,30.10,East,98,0.0,1.0,87,0.00,OVC,OVC,0.00,WeatherDisplay:10.37,2013-07-03 01:19:00,
2013-07-02 21:24:00,62.6,58.7,30.10,ESE,113,0.0,0.0,87,0.00,OVC,OVC,0.00,WeatherDisplay:10.37,2013-07-03 01:24:00,
2013-07-02 21:29:00,62.6,58.7,30.10,East,90,0.0,2.0,87,0.00,OVC,OVC,0.00,WeatherDisplay:10.37,2013-07-03 01:29:00,
2013-07-02 21:34:00,62.7,58.5,30.10,ENE,57,0.0,4.0,86,0.00,OVC,OVC,0.00,WeatherDisplay:10.37,2013-07-03 01:34:00,
2013-07-02 21:39:00,62.7,58.5,30.10,East,81,0.0,2.0,86,0.00,OVC,OVC,0.00,WeatherDisplay:10.37,2013-07-03 01:39:00,
2013-07-02 21:44:00,62.6,58.7,30.11,ENE,64,0.0,0.0,87,0.00,OVC,OVC,0.00,WeatherDisplay:10.37,2013-07-03 01:44:00,
2013-07-02 21:49:00,62.6,58.4,30.11,ENE,63,0.0,0.0,86,0.00,OVC,OVC,0.00,WeatherDisplay:10.37,2013-07-03 01:49:00,
2013-07-02 21:54:00,62.7,58.8,30.11,ENE,74,0.0,0.0,87,0.00,OVC,OVC,0.00,WeatherDisplay:10.37,2013-07-03 01:54:00,
2013-07-02 21:59:00,62.8,58.5,30.11,ENE,62,0.0,1.0,86,0.00,OVC,OVC,0.00,WeatherDisplay:10.37,2013-07-03 01:59:00,
2013-07-02 22:04:00,62.8,58.2,30.11,East,84,0.0,1.0,85,0.00,OVC,OVC,0.00,WeatherDisplay:10.37,2013-07-03 02:04:00,
2013-07-02 22:14:00,62.9,58.3,30.11,East,84,0.0,0.0,85,0.00,OVC,OVC,0.00,WeatherDisplay:10.37,2013-07-03 02:14:00,
2013-07-02 22:19:00,62.9,58.3,30.11,East,82,0.0,3.0,85,0.00,OVC,OVC,0.00,WeatherDisplay:10.37,2013-07-03 02:19:00,
2013-07-02 22:24:00,63.0,58.4,30.10,East,94,0.0,1.0,85,0.00,OVC,OVC,0.00,WeatherDisplay:10.37,2013-07-03 02:24:00,
2013-07-02 22:29:00,62.9,58.3,30.10,ESE,110,0.0,0.0,85,0.00,OVC,OVC,0.00,WeatherDisplay:10.37,2013-07-03 02:29:00,
2013-07-02 22:34:00,62.8,57.9,30.11,ESE,109,0.0,0.0,84,0.00,OVC,OVC,0.00,WeatherDisplay:10.37,2013-07-03 02:34:00,
2013-07-02 22:39:00,62.8,57.9,30.11,ESE,109,0.0,0.0,84,0.00,OVC,OVC,0.00,WeatherDisplay:10.37,2013-07-03 02:39:00,
2013-07-02 22:44:00,62.8,58.2,30.10,ESE,109,0.0,0.0,85,0.00,OVC,OVC,0.00,WeatherDisplay:10.37,2013-07-03 02:44:00,
2013-07-02 22:49:00,62.7,58.1,30.10,ESE,109,0.0,0.0,85,0.00,OVC,OVC,0.00,WeatherDisplay:10.37,2013-07-03 02:49:00,
2013-07-02 22:54:00,62.6,58.4,30.10,ESE,109,0.0,0.0,86,0.00,OVC,OVC,0.00,WeatherDisplay:10.37,2013-07-03 02:54:00,
2013-07-02 22:59:00,62.5,57.9,30.10,East,101,0.0,0.0,85,0.00,OVC,OVC,0.00,WeatherDisplay:10.37,2013-07-03 02:59:00,
2013-07-02 23:09:00,62.4,57.8,30.10,NNW,342,0.0,0.0,85,0.00,OVC,OVC,0.00,WeatherDisplay:10.37,2013-07-03 03:09:00,
2013-07-02 23:14:00,62.4,58.2,30.10,NNW,338,0.0,0.0,86,0.00,OVC,OVC,0.00,WeatherDisplay:10.37,2013-07-03 03:14:00,
2013-07-02 23:19:00,62.4,58.2,30.10,NNW,340,0.0,0.0,86,0.00,OVC,OVC,0.00,WeatherDisplay:10.37,2013-07-03 03:19:00,
2013-07-02 23:24:00,62.4,58.2,30.10,NW,324,0.0,0.0,86,0.00,OVC,OVC,0.00,WeatherDisplay:10.37,2013-07-03 03:24:00,
2013-07-02 23:29:00,62.3,58.1,30.10,NW,312,0.0,0.0,86,0.00,OVC,OVC,0.00,WeatherDisplay:10.37,2013-07-03 03:29:00,
2013-07-02 23:34:00,62.2,58.0,30.09,NW,316,0.0,0.0,86,0.00,OVC,OVC,0.00,WeatherDisplay:10.37,2013-07-03 03:34:00,
2013-07-02 23:39:00,62.1,57.9,30.09,NW,316,0.0,0.0,86,0.00,OVC,OVC,0.00,WeatherDisplay:10.37,2013-07-03 03:39:00,
2013-07-02 23:44:00,62.1,57.9,30.10,NW,317,0.0,0.0,86,0.00,OVC,OVC,0.00,WeatherDisplay:10.37,2013-07-03 03:44:00,
2013-07-02 23:49:00,62.1,58.2,30.10,NW,326,0.0,0.0,87,0.00,OVC,OVC,0.00,WeatherDisplay:10.37,2013-07-03 03:49:00,
2013-07-02 23:54:00,62.1,58.2,30.10,NNW,339,0.0,0.0,87,0.00,OVC,OVC,0.00,WeatherDisplay:10.37,2013-07-03 03:54:00,